M I D A S
Marine Information and Data Acquisition System
Tripno 1519 of the Zeeleeuw from 2008-07-15 08:24:35 to 2008-07-15 13:17:33
Back to CruiseResearch ActivitiesStationsMapUnderway DataData graphs

EquipmentUnitsComments
TimeDGPSUTC
LatitudeDGPSDM.mWGS84
LongitudeDGPSDM.mWGS84
SpeedMeteo Stationm/sRelative wind speed
DirectionMeteo StationdegRelative wind direction
TemperatureMeteo Stationdeg CelciusAir temperature
PressureMeteo StationPaAtmospheric pressure
HumidityMeteo Station%Relative humidity
Missing or incorrect values are displayed as -999
Metereological data collected by the RV Zeeleeuw from 2008-07-15 08:26:28 to 2008-07-15 13:18:59
Time Latitude Longitude Speed Direction Temperature Pressure Humidity
2008-07-15 08:27 51°13.645 2°55.97 -999 -999 -999 -999 -999
2008-07-15 08:28 51°13.681 2°55.854 -999 -999 -999 -999 -999
2008-07-15 08:29 51°13.711 2°55.755 -999 -999 -999 -999 -999
2008-07-15 08:30 51°13.724 2°55.743 -999 -999 -999 -999 -999
2008-07-15 08:31 51°13.722 2°55.74 -999 -999 -999 -999 -999
2008-07-15 08:32 51°13.77 2°55.695 -999 -999 -999 -999 -999
2008-07-15 08:33 51°13.863 2°55.606 -999 -999 -999 -999 -999
2008-07-15 08:34 51°13.963 2°55.528 -999 -999 -999 -999 -999
2008-07-15 08:35 51°14.058 2°55.455 -999 -999 -999 -999 -999
2008-07-15 08:36 51°14.167 2°55.366 -999 -999 -999 -999 -999
2008-07-15 08:37 51°14.287 2°55.203 -999 -999 -999 -999 -999
2008-07-15 08:38 51°14.414 2°55.012 -999 -999 -999 -999 -999
2008-07-15 08:39 51°14.599 2°54.889 -999 -999 -999 -999 -999
2008-07-15 08:40 51°14.787 2°54.763 9.4 23 17.2 -999 82
2008-07-15 08:41 51°14.957 2°54.597 9.3 27 17.2 102570 83
2008-07-15 08:42 51°15.129 2°54.441 8 25 17.2 102580 84
2008-07-15 08:43 51°15.309 2°54.292 10.2 24 17.2 102580 83
2008-07-15 08:44 51°15.491 2°54.143 11.4 24 17.2 102570 83
2008-07-15 08:45 51°15.667 2°53.983 8.8 26 17.2 102550 83
2008-07-15 08:46 51°15.841 2°53.817 8.9 241 17.2 102550 83
2008-07-15 08:47 51°16.017 2°53.655 10.1 25 17.2 102550 84
2008-07-15 08:48 51°16.192 2°53.492 9 23 17.2 102540 83
2008-07-15 08:49 51°16.367 2°53.338 11.3 245 17.2 102560 83
2008-07-15 08:50 51°16.541 2°53.203 8 243 17.2 102560 83
2008-07-15 08:51 51°16.702 2°53.081 10.6 251 17.2 102560 83
2008-07-15 08:52 51°16.859 2°52.957 9.6 248 17.2 102560 83
2008-07-15 08:53 51°17.016 2°52.836 10 278 17.2 102560 83
2008-07-15 08:54 51°17.174 2°52.712 8.9 249 17.2 102560 83
2008-07-15 08:55 51°17.33 2°52.586 10.6 285 17.2 102550 84
2008-07-15 08:56 51°17.483 2°52.452 8.4 250 17.2 102550 84
2008-07-15 08:57 51°17.632 2°52.318 7.6 284 17.2 102550 83
2008-07-15 08:58 51°17.784 2°52.18 9.2 250 17.2 102550 84
2008-07-15 08:59 51°17.935 2°52.046 12.1 278 17.2 102550 84
2008-07-15 09:00 51°18.089 2°51.909 8.2 278 17.2 102550 84
2008-07-15 09:01 51°18.238 2°51.777 11.2 279 17.2 102550 84
2008-07-15 09:02 51°18.393 2°51.644 11 277 17.2 102560 84
2008-07-15 09:03 51°18.54 2°51.515 8.9 281 17.2 102550 83
2008-07-15 09:04 51°18.693 2°51.379 9 282 17.2 102540 83
2008-07-15 09:05 51°18.843 2°51.244 8.1 21 17.2 102540 83
2008-07-15 09:06 51°18.994 2°51.114 11.4 283 17.2 102550 83
2008-07-15 09:07 51°19.12 2°51.011 9.7 22 17.2 102550 91
2008-07-15 09:08 51°19.209 2°50.859 9.8 276 17.2 102540 91
2008-07-15 09:09 51°19.258 2°50.659 13 281 17.2 102530 90
2008-07-15 09:10 51°19.311 2°50.45 9.6 26 17.2 102520 90
2008-07-15 09:11 51°19.366 2°50.242 9.4 284 17.2 102540 90
2008-07-15 09:12 51°19.421 2°50.045 10.1 279 17.2 102530 90
2008-07-15 09:13 51°19.478 2°49.836 12.3 24 17.2 102530 90
2008-07-15 09:14 51°19.527 2°49.629 10.5 276 17.3 102530 91
2008-07-15 09:15 51°19.578 2°49.419 10.7 26 17.3 102540 91
2008-07-15 09:16 51°19.623 2°49.207 10.5 283 17.2 102530 91
2008-07-15 09:17 51°19.667 2°48.996 11.2 26 17.3 102540 91
2008-07-15 09:18 51°19.711 2°48.783 12.6 279 17.2 102540 91
2008-07-15 09:19 51°19.755 2°48.57 11.7 24 17.2 102530 91
2008-07-15 09:20 51°19.801 2°48.354 13 26 17.2 102530 91
2008-07-15 09:21 51°19.848 2°48.14 11.8 26 17.2 102530 91
2008-07-15 09:22 51°19.895 2°47.927 9.9 27 17.2 102540 91
2008-07-15 09:23 51°19.943 2°47.714 11.5 277 17.2 102540 91
2008-07-15 09:24 51°19.986 2°47.501 12.5 28 17.2 102530 90
2008-07-15 09:25 51°20.007 2°47.287 12.5 276 17.3 102540 91
2008-07-15 09:26 51°20.025 2°47.068 12.4 316 17.2 102530 91
2008-07-15 09:27 51°20.046 2°46.847 13.7 284 17.2 102540 91
2008-07-15 09:28 51°20.068 2°46.628 12.9 22 17.2 102540 90
2008-07-15 09:29 51°20.091 2°46.412 12.6 283 17.2 102540 87
2008-07-15 09:30 51°20.11 2°46.199 12.5 25 17.2 102530 87
2008-07-15 09:31 51°20.132 2°45.979 13.4 316 17.3 102530 88
2008-07-15 09:32 51°20.156 2°45.758 11.6 279 17.3 102530 87
2008-07-15 09:33 51°20.181 2°45.537 13.1 316 17.2 102530 86
2008-07-15 09:34 51°20.205 2°45.309 12 279 17.2 102530 86
2008-07-15 09:35 51°20.22 2°45.078 11.7 317 17.3 102530 86
2008-07-15 09:36 51°20.238 2°44.848 11.4 280 17.3 102530 86
2008-07-15 09:37 51°20.256 2°44.619 13.4 316 17.3 102530 87
2008-07-15 09:38 51°20.277 2°44.39 13.8 276 17.2 102530 90
2008-07-15 09:39 51°20.298 2°44.163 12.1 316 17.3 102530 91
2008-07-15 09:40 51°20.318 2°43.935 12 278 17.2 102530 91
2008-07-15 09:41 51°20.336 2°43.708 13.4 281 17.2 102520 91
2008-07-15 09:42 51°20.355 2°43.484 12.1 277 17.2 102520 91
2008-07-15 09:43 51°20.375 2°43.258 13.6 280 17.1 102520 91
2008-07-15 09:44 51°20.39 2°43.034 12.3 280 17.2 102520 91
2008-07-15 09:45 51°20.406 2°42.806 12.3 281 17.2 102520 91
2008-07-15 09:46 51°20.416 2°42.582 14.2 281 17.2 102520 91
2008-07-15 09:47 51°20.427 2°42.349 13.2 280 17.2 102530 91
2008-07-15 09:48 51°20.437 2°42.126 12.3 317 17.1 102520 92
2008-07-15 09:49 51°20.452 2°41.909 14.8 276 17.1 102510 92
2008-07-15 09:50 51°20.471 2°41.69 15.3 283 17 102510 92
2008-07-15 09:51 51°20.486 2°41.472 14.4 278 17 102530 92
2008-07-15 09:52 51°20.506 2°41.246 14.2 281 17 102530 92
2008-07-15 09:53 51°20.525 2°41.022 12.6 316 17 102530 92
2008-07-15 09:54 51°20.541 2°40.797 13.5 318 16.9 102520 92
2008-07-15 09:55 51°20.553 2°40.569 13.1 318 17 102530 93
2008-07-15 09:56 51°20.566 2°40.341 12.4 316 17 102520 91
2008-07-15 09:57 51°20.579 2°40.113 12.7 282 17 102540 91
2008-07-15 09:58 51°20.593 2°39.885 12.6 320 17 102550 92
2008-07-15 09:59 51°20.608 2°39.661 12.4 280 17 102520 91
2008-07-15 10:00 51°20.622 2°39.435 11.5 318 17 102540 92
2008-07-15 10:01 51°20.635 2°39.209 11.8 284 16.9 102540 93
2008-07-15 10:02 51°20.648 2°38.985 14 317 16.9 102540 93
2008-07-15 10:03 51°20.661 2°38.756 13 284 16.9 102530 93
2008-07-15 10:04 51°20.674 2°38.534 11.2 321 16.9 102530 94
2008-07-15 10:05 51°20.688 2°38.305 12.3 321 16.9 102530 94
2008-07-15 10:06 51°20.696 2°38.079 13.8 280 16.9 102530 94
2008-07-15 10:07 51°20.705 2°37.853 12.9 319 16.9 102520 94
2008-07-15 10:08 51°20.712 2°37.629 12.2 285 16.9 102530 94
2008-07-15 10:09 51°20.72 2°37.404 13.4 320 17 102540 94
2008-07-15 10:10 51°20.727 2°37.179 14.2 280 17 102530 94
2008-07-15 10:11 51°20.734 2°36.952 12.4 319 17 102540 94
2008-07-15 10:12 51°20.743 2°36.726 12.8 281 17 102540 94
2008-07-15 10:13 51°20.751 2°36.505 14.5 285 17 102530 94
2008-07-15 10:14 51°20.759 2°36.284 13.9 320 17 102540 94
2008-07-15 10:15 51°20.77 2°36.066 15.1 282 17 102530 93
2008-07-15 10:16 51°20.838 2°35.867 13.2 26 17 102540 93
2008-07-15 10:17 51°20.924 2°35.672 13.1 21 17 102530 93
2008-07-15 10:18 51°20.999 2°35.47 12.1 26 16.9 102520 93
2008-07-15 10:19 51°21.084 2°35.271 14.9 22 16.9 102520 93
2008-07-15 10:20 51°21.188 2°35.096 12.4 25 16.9 102530 93
2008-07-15 10:21 51°21.302 2°34.928 12 23 16.9 102520 93
2008-07-15 10:22 51°21.427 2°34.774 13.7 27 17 102530 93
2008-07-15 10:23 51°21.571 2°34.652 10.9 247 16.9 102530 93
2008-07-15 10:24 51°21.732 2°34.622 9.5 260 17 102560 94
2008-07-15 10:25 51°21.888 2°34.651 9.3 256 17 102560 93
2008-07-15 10:26 51°22.04 2°34.674 8.5 262 17 102550 93
2008-07-15 10:27 51°22.19 2°34.689 10.6 258 17 102550 91
2008-07-15 10:28 51°22.313 2°34.78 5.5 75 17 102560 93
2008-07-15 10:29 51°22.316 2°34.999 8.7 33 17 102580 94
2008-07-15 10:30 51°22.309 2°35.192 9.5 34 17 102570 94
2008-07-15 10:31 51°22.314 2°35.354 8.2 39 16.9 102560 94
2008-07-15 10:32 51°22.326 2°35.504 8.8 37 16.9 102560 94
2008-07-15 10:33 51°22.337 2°35.658 8.8 42 16.9 102560 94
2008-07-15 10:34 51°22.375 2°35.816 9 23 16.9 102560 95
2008-07-15 10:35 51°22.455 2°35.979 9.5 77 17 102550 95
2008-07-15 10:36 51°22.569 2°36.023 13.2 284 17 102530 92
2008-07-15 10:37 51°22.642 2°35.905 13.2 283 17 102510 94
2008-07-15 10:38 51°22.711 2°35.732 13.4 284 17 102490 94
2008-07-15 10:39 51°22.752 2°35.532 15.5 279 17 102500 94
2008-07-15 10:40 51°22.79 2°35.325 16 279 17 102480 94
2008-07-15 10:41 51°22.818 2°35.118 16.8 278 17 102490 94
2008-07-15 10:42 51°22.842 2°34.907 15.1 279 17 102500 94
2008-07-15 10:43 51°22.866 2°34.693 12.8 281 17 102500 93
2008-07-15 10:44 51°22.891 2°34.481 16.6 281 17 102480 93
2008-07-15 10:45 51°22.906 2°34.271 15.2 278 17 102490 93
2008-07-15 10:46 51°22.909 2°34.061 14.3 284 17 102510 93
2008-07-15 10:47 51°22.908 2°33.85 15.7 281 17 102500 94
2008-07-15 10:48 51°22.908 2°33.639 15.1 278 17 102500 93
2008-07-15 10:49 51°22.911 2°33.431 12.8 276 16.9 102510 94
2008-07-15 10:50 51°22.912 2°33.225 13.7 322 17 102510 94
2008-07-15 10:51 51°22.914 2°33.018 14.2 276 16.9 102510 92
2008-07-15 10:52 51°22.916 2°32.845 11.3 321 17 102510 95
2008-07-15 10:53 51°22.923 2°32.696 11.5 321 17 102510 96
2008-07-15 10:54 51°22.933 2°32.554 11 319 17 102510 96
2008-07-15 10:55 51°22.938 2°32.41 13.3 322 17 102520 96
2008-07-15 10:56 51°22.944 2°32.268 13.1 320 16.9 102500 96
2008-07-15 10:57 51°22.951 2°32.126 14.2 319 16.9 102510 96
2008-07-15 10:58 51°22.958 2°31.979 11.9 322 16.9 102510 96
2008-07-15 10:59 51°22.972 2°31.831 13.6 20 16.9 102520 96
2008-07-15 11:00 51°23.023 2°31.692 11.8 27 16.9 102500 96
2008-07-15 11:01 51°23.078 2°31.559 14.3 24 16.9 102500 96
2008-07-15 11:02 51°23.129 2°31.427 12 30 16.9 102480 96
2008-07-15 11:03 51°23.179 2°31.293 12.4 26 16.9 102500 96
2008-07-15 11:04 51°23.231 2°31.157 13.2 26 16.8 102490 97
2008-07-15 11:05 51°23.282 2°31.018 14.9 26 16.8 102490 96
2008-07-15 11:06 51°23.334 2°30.879 11.9 26 16.8 102480 97
2008-07-15 11:07 51°23.384 2°30.74 14.2 27 16.8 102490 97
2008-07-15 11:08 51°23.435 2°30.599 14.3 23 16.8 102490 97
2008-07-15 11:09 51°23.488 2°30.459 11.5 27 16.8 102480 97
2008-07-15 11:10 51°23.567 2°30.336 13.6 22 16.8 102480 97
2008-07-15 11:11 51°23.677 2°30.246 11 249 16.8 102490 97
2008-07-15 11:12 51°23.801 2°30.18 9.7 251 16.8 102500 97
2008-07-15 11:13 51°23.934 2°30.144 12.7 254 16.8 102490 97
2008-07-15 11:14 51°24.073 2°30.129 11.9 261 16.8 102510 97
2008-07-15 11:15 51°24.205 2°30.152 7 265 16.8 102510 97
2008-07-15 11:16 51°24.33 2°30.189 6.1 264 16.8 102520 97
2008-07-15 11:17 51°24.441 2°30.27 4.5 82 16.8 102520 97
2008-07-15 11:18 51°24.501 2°30.439 6.1 39 16.8 102520 97
2008-07-15 11:19 51°24.512 2°30.625 8.6 26 16.8 102530 97
2008-07-15 11:20 51°24.492 2°30.798 9.2 20 16.8 102530 97
2008-07-15 11:21 51°24.45 2°30.948 10.4 12 16.7 102530 97
2008-07-15 11:22 51°24.391 2°31.061 10.1 7 16.7 102510 97
2008-07-15 11:23 51°24.33 2°31.173 12.8 9 16.7 102510 97
2008-07-15 11:24 51°24.272 2°31.289 11.5 11 16.7 102510 97
2008-07-15 11:25 51°24.213 2°31.35 11 355 16.7 102490 98
2008-07-15 11:26 51°24.148 2°31.42 11.1 6 16.7 102510 99
2008-07-15 11:27 51°24.08 2°31.501 12.5 1 16.6 102500 99
2008-07-15 11:28 51°24.003 2°31.583 10.4 3 16.6 102490 99
2008-07-15 11:29 51°23.925 2°31.666 11.3 359 16.6 102490 99
2008-07-15 11:30 51°23.846 2°31.753 9.5 3 16.6 102490 95
2008-07-15 11:31 51°23.764 2°31.838 10.9 5 16.6 102480 95
2008-07-15 11:32 51°23.678 2°31.926 12.1 3 16.6 102490 95
2008-07-15 11:33 51°23.591 2°32.013 11.9 356 16.6 102480 95
2008-07-15 11:34 51°23.489 2°32.089 13.9 357 16.6 102480 98
2008-07-15 11:35 51°23.382 2°32.17 12.7 358 16.6 102490 99
2008-07-15 11:36 51°23.274 2°32.248 10.8 358 16.6 102490 99
2008-07-15 11:37 51°23.166 2°32.327 13.1 356 16.6 102480 99
2008-07-15 11:38 51°23.06 2°32.409 14 359 16.6 102480 99
2008-07-15 11:39 51°22.953 2°32.49 13.1 356 16.6 102480 99
2008-07-15 11:40 51°22.846 2°32.565 12.5 353 16.6 102480 99
2008-07-15 11:41 51°22.762 2°32.508 12.5 331 16.6 102510 99
2008-07-15 11:42 51°22.707 2°32.389 14.4 281 16.6 102500 99
2008-07-15 11:43 51°22.645 2°32.272 15.2 334 16.6 102490 99
2008-07-15 11:44 51°22.568 2°32.176 13.9 336 16.7 102490 97
2008-07-15 11:45 51°22.472 2°32.118 13.5 349 16.7 102490 98
2008-07-15 11:46 51°22.357 2°32.18 13.8 -999 16.7 102480 99
2008-07-15 11:47 51°22.236 2°32.266 13.4 356 16.7 102490 99
2008-07-15 11:48 51°22.119 2°32.357 11.7 -999 16.7 102480 99
2008-07-15 11:49 51°21.999 2°32.445 12.3 358 16.6 102480 99
2008-07-15 11:50 51°21.878 2°32.533 12.8 358 16.7 102490 99
2008-07-15 11:51 51°21.763 2°32.65 11.2 3 16.7 102490 99
2008-07-15 11:52 51°21.656 2°32.791 11.3 9 16.7 102490 99
2008-07-15 11:53 51°21.566 2°32.972 10.2 15 16.7 102500 99
2008-07-15 11:54 51°21.479 2°33.153 11.9 11 16.7 102510 99
2008-07-15 11:55 51°21.39 2°33.335 11.6 12 16.7 102500 99
2008-07-15 11:56 51°21.301 2°33.519 9.3 15 16.7 102520 99
2008-07-15 11:57 51°21.221 2°33.716 9.1 19 16.7 102510 99
2008-07-15 11:58 51°21.147 2°33.919 10.3 16 16.7 102510 99
2008-07-15 11:59 51°21.072 2°34.123 10.3 14 16.7 102520 98
2008-07-15 12:00 51°20.999 2°34.326 9.8 13 16.7 102510 98
2008-07-15 12:01 51°20.925 2°34.528 9.7 13 16.8 102510 98
2008-07-15 12:02 51°20.853 2°34.735 9.2 15 16.8 102510 98
2008-07-15 12:03 51°20.78 2°34.94 9.8 17 16.8 102510 97
2008-07-15 12:04 51°20.705 2°35.145 10.2 15 16.8 102500 98
2008-07-15 12:05 51°20.628 2°35.347 7.8 18 16.8 102510 98
2008-07-15 12:06 51°20.552 2°35.55 10.2 14 16.9 102510 98
2008-07-15 12:07 51°20.475 2°35.754 9.9 12 16.9 102500 98
2008-07-15 12:08 51°20.395 2°35.955 10.8 15 16.9 102500 98
2008-07-15 12:09 51°20.315 2°36.155 8.7 12 16.9 102500 98
2008-07-15 12:10 51°20.234 2°36.353 7.8 13 17 102500 98
2008-07-15 12:11 51°20.153 2°36.549 10.5 17 17 102500 98
2008-07-15 12:12 51°20.072 2°36.747 10.2 12 17 102500 98
2008-07-15 12:13 51°19.991 2°36.946 8.6 18 17 102500 98
2008-07-15 12:14 51°19.908 2°37.14 8.3 14 17.1 102500 98
2008-07-15 12:15 51°19.826 2°37.334 8.8 14 17.1 102500 98
2008-07-15 12:16 51°19.744 2°37.529 11 13 17.1 102500 98
2008-07-15 12:17 51°19.66 2°37.721 9.2 14 17.1 102500 98
2008-07-15 12:18 51°19.575 2°37.915 8.3 13 17.1 102500 98
2008-07-15 12:19 51°19.492 2°38.107 9.5 17 17.1 102500 98
2008-07-15 12:20 51°19.404 2°38.321 8.9 8 17.2 102500 98
2008-07-15 12:21 51°19.287 2°38.589 8.5 8 17.2 102500 97
2008-07-15 12:22 51°19.168 2°38.859 7.4 8 17.2 102500 97
2008-07-15 12:23 51°19.048 2°39.128 6.8 5 17.2 102500 97
2008-07-15 12:24 51°18.932 2°39.397 6.3 6 17.2 102500 97
2008-07-15 12:25 51°18.814 2°39.664 8.3 9 17.2 102500 97
2008-07-15 12:26 51°18.697 2°39.935 6.8 6 17.2 102490 97
2008-07-15 12:27 51°18.586 2°40.212 6.6 3 17.3 102500 97
2008-07-15 12:28 51°18.466 2°40.486 5.8 2 17.3 102500 97
2008-07-15 12:29 51°18.341 2°40.756 6.9 6 17.3 102490 97
2008-07-15 12:30 51°18.216 2°41.028 9.7 9 17.3 102490 97
2008-07-15 12:31 51°18.09 2°41.296 7.1 1 17.4 102500 97
2008-07-15 12:32 51°17.967 2°41.56 6.5 4 17.4 102500 97
2008-07-15 12:33 51°17.844 2°41.826 6.4 5 17.4 102490 97
2008-07-15 12:34 51°17.722 2°42.093 7.9 2 17.4 102500 97
2008-07-15 12:35 51°17.601 2°42.36 6.9 2 17.5 102500 97
2008-07-15 12:36 51°17.482 2°42.627 6.3 -999 17.5 102500 96
2008-07-15 12:37 51°17.363 2°42.892 6.2 5 17.5 102490 96
2008-07-15 12:38 51°17.241 2°43.151 7 8 17.6 102500 96
2008-07-15 12:39 51°17.117 2°43.408 7.7 8 17.6 102490 96
2008-07-15 12:40 51°16.992 2°43.666 6.7 5 17.6 102490 96
2008-07-15 12:41 51°16.869 2°43.924 9.2 13 17.6 102490 96
2008-07-15 12:42 51°16.792 2°44.226 5.7 17 17.7 102490 95
2008-07-15 12:43 51°16.733 2°44.546 6.2 18 17.7 102500 95
2008-07-15 12:44 51°16.674 2°44.862 7.9 21 17.8 102500 95
2008-07-15 12:45 51°16.617 2°45.179 7 14 17.8 102500 95
2008-07-15 12:46 51°16.563 2°45.497 6.4 19 17.8 102500 95
2008-07-15 12:47 51°16.501 2°45.81 7.7 18 17.9 102490 95
2008-07-15 12:48 51°16.434 2°46.121 6.5 14 17.9 102490 94
2008-07-15 12:49 51°16.373 2°46.434 6.9 19 17.9 102500 94
2008-07-15 12:50 51°16.317 2°46.751 6.8 20 17.9 102500 94
2008-07-15 12:51 51°16.254 2°47.07 6.2 20 18 102490 93
2008-07-15 12:52 51°16.197 2°47.393 7 24 18 102490 93
2008-07-15 12:53 51°16.126 2°47.71 8.2 22 18.1 102490 93
2008-07-15 12:54 51°16.057 2°48.028 7.5 16 18.1 102480 93
2008-07-15 12:55 51°15.986 2°48.346 6 27 18.1 102490 93
2008-07-15 12:56 51°15.923 2°48.664 7.3 22 18.1 102490 92
2008-07-15 12:57 51°15.859 2°48.979 7.5 21 18.2 102490 92
2008-07-15 12:58 51°15.782 2°49.285 6.2 16 18.2 102490 92
2008-07-15 12:59 51°15.725 2°49.604 7.4 17 18.2 102490 92
2008-07-15 13:00 51°15.654 2°49.92 7.5 17 18.2 102490 92
2008-07-15 13:01 51°15.587 2°50.233 5.9 15 18.2 102480 92
2008-07-15 13:02 51°15.529 2°50.549 5.1 23 18.3 102490 92
2008-07-15 13:03 51°15.481 2°50.872 6.7 11 18.3 102490 92
2008-07-15 13:04 51°15.409 2°51.186 6.6 20 18.3 102480 92
2008-07-15 13:05 51°15.345 2°51.502 7.3 21 18.3 102490 92
2008-07-15 13:06 51°15.281 2°51.813 6.4 16 18.3 102490 92
2008-07-15 13:07 51°15.211 2°52.124 7.3 19 18.3 102490 92
2008-07-15 13:08 51°15.144 2°52.433 8.5 18 18.3 102490 92
2008-07-15 13:09 51°15.064 2°52.735 7.6 15 18.3 102480 92
2008-07-15 13:10 51°14.985 2°53.036 7.9 14 18.3 102480 92
2008-07-15 13:11 51°14.899 2°53.331 7.4 16 18.3 102480 91
2008-07-15 13:12 51°14.808 2°53.622 7.5 15 18.3 102480 92
2008-07-15 13:13 51°14.723 2°53.923 6.5 17 18.3 102480 91
2008-07-15 13:14 51°14.639 2°54.221 7.9 13 18.3 102470 91
2008-07-15 13:15 51°14.544 2°54.511 7.6 16 18.4 102470 91
2008-07-15 13:16 51°14.451 2°54.805 6.8 16 18.4 102470 91
2008-07-15 13:17 51°14.346 2°55.083 8.4 12 18.4 102470 91
2008-07-15 13:18 51°14.234 2°55.293 7.6 12 18.5 102480 91